createdAt,value
2022-10-23T00:01:41.600Z,10.61
2022-10-23T00:04:14.499Z,10.51
2022-10-23T00:06:43.171Z,10.31
2022-10-23T00:09:12.366Z,10.05
2022-10-23T00:11:41.973Z,9.99
2022-10-23T00:14:09.427Z,10.42
2022-10-23T00:16:38.011Z,10.55
2022-10-23T00:19:08.306Z,10.44
2022-10-23T00:21:40.103Z,10.11
2022-10-23T00:26:37.921Z,10.32
2022-10-23T00:29:07.387Z,10.61
2022-10-23T00:31:37.400Z,10.49
2022-10-23T00:34:07.827Z,10.12
2022-10-23T00:36:36.611Z,9.92
2022-10-23T00:39:04.687Z,10.18
2022-10-23T00:41:32.554Z,10.49
2022-10-23T00:44:05.363Z,10.35
2022-10-23T00:46:33.500Z,10.14
2022-10-23T00:49:01.072Z,9.89
2022-10-23T00:51:33.595Z,10.12
2022-10-23T00:54:22.951Z,10.48
2022-10-23T00:56:49.035Z,10.30
2022-10-23T00:59:16.692Z,10.07
2022-10-23T01:01:46.106Z,9.85
2022-10-23T01:04:15.599Z,10.17
2022-10-23T01:06:59.030Z,10.39
2022-10-23T01:09:33.965Z,10.41
2022-10-23T01:12:26.111Z,10.23
2022-10-23T01:15:01.852Z,10.06
2022-10-23T01:17:44.416Z,10.54
2022-10-23T01:20:41.110Z,10.76
2022-10-23T01:23:23.818Z,10.55
2022-10-23T01:26:10.941Z,10.27
2022-10-23T01:29:19.567Z,10.03
2022-10-23T01:32:14.054Z,10.06
2022-10-23T01:34:56.465Z,10.60
2022-10-23T01:37:29.033Z,10.62
2022-10-23T01:40:02.430Z,10.50
2022-10-23T01:42:39.421Z,10.29
2022-10-23T01:45:09.411Z,10.12
2022-10-23T01:47:45.451Z,10.62
2022-10-23T01:50:14.996Z,11.02
2022-10-23T01:52:47.772Z,10.96
2022-10-23T01:55:16.354Z,10.70
2022-10-23T01:57:44.742Z,10.43
2022-10-23T02:00:14.544Z,10.26
2022-10-23T02:02:54.598Z,10.77
2022-10-23T02:05:29.117Z,11.22
2022-10-23T02:07:58.315Z,11.20
2022-10-23T02:10:33.584Z,10.97
2022-10-23T02:13:03.171Z,10.71
2022-10-23T02:15:38.286Z,10.50
2022-10-23T02:18:15.385Z,10.94
2022-10-23T02:20:55.267Z,11.37
2022-10-23T02:23:27.918Z,11.31
2022-10-23T02:26:01.819Z,11.08
2022-10-23T02:28:34.571Z,10.79
2022-10-23T02:31:02.082Z,10.57
2022-10-23T02:33:31.356Z,10.97
2022-10-23T02:35:59.633Z,11.40
2022-10-23T02:38:41.020Z,11.34
2022-10-23T02:41:43.364Z,11.11
2022-10-23T02:44:37.483Z,10.78
2022-10-23T02:47:30.736Z,10.57
2022-10-23T02:50:05.154Z,11.12
2022-10-23T02:52:32.303Z,11.35
2022-10-23T02:55:12.189Z,11.20
2022-10-23T02:58:15.042Z,10.98
2022-10-23T03:00:49.060Z,10.66
2022-10-23T03:03:19.678Z,10.66
2022-10-23T03:05:47.553Z,11.15
2022-10-23T03:08:15.209Z,11.27
2022-10-23T03:10:43.064Z,11.11
2022-10-23T03:13:11.164Z,10.87
2022-10-23T03:15:43.620Z,10.66
2022-10-23T03:18:16.812Z,11.09
2022-10-23T03:20:54.918Z,11.39
2022-10-23T03:23:22.988Z,11.30
2022-10-23T03:25:55.124Z,11.07
2022-10-23T03:28:32.346Z,10.79
2022-10-23T03:31:01.958Z,11.14
2022-10-23T03:33:30.737Z,11.39
2022-10-23T03:36:01.272Z,11.24
2022-10-23T03:38:29.236Z,11.06
2022-10-23T03:40:57.204Z,10.91
2022-10-23T03:43:24.660Z,11.23
2022-10-23T03:45:52.320Z,11.55
2022-10-23T03:48:20.085Z,11.49
2022-10-23T03:50:47.644Z,11.28
2022-10-23T03:53:16.434Z,10.93
2022-10-23T03:55:45.578Z,10.93
2022-10-23T03:58:13.810Z,11.37
2022-10-23T04:03:14.480Z,11.33
2022-10-23T04:05:42.430Z,11.09
2022-10-23T04:08:14.162Z,10.92
2022-10-23T04:10:49.112Z,11.27
2022-10-23T04:13:20.150Z,11.50
2022-10-23T04:15:49.660Z,11.38
2022-10-23T04:18:19.160Z,11.13
2022-10-23T04:20:48.881Z,10.91
2022-10-23T04:23:16.431Z,11.22
2022-10-23T04:25:45.358Z,11.43
2022-10-23T04:28:12.782Z,11.25
2022-10-23T04:30:41.895Z,11.05
2022-10-23T04:33:13.433Z,10.90
2022-10-23T04:35:41.035Z,11.23
2022-10-23T04:38:10.185Z,11.40
2022-10-23T04:40:37.846Z,11.30
2022-10-23T04:43:05.816Z,11.11
2022-10-23T04:45:39.111Z,10.90
2022-10-23T04:48:06.667Z,11.28
2022-10-23T04:51:08.355Z,11.54
2022-10-23T04:54:11.214Z,11.32
2022-10-23T04:56:50.961Z,10.95
2022-10-23T04:59:21.594Z,10.84
2022-10-23T05:01:49.485Z,11.30
2022-10-23T05:04:20.497Z,11.48
2022-10-23T05:07:06.487Z,11.37
2022-10-23T05:09:44.695Z,11.05
2022-10-23T05:12:42.160Z,10.92
2022-10-23T05:15:10.642Z,11.33
2022-10-23T05:17:39.407Z,11.43
2022-10-23T05:20:09.389Z,11.26
2022-10-23T05:22:37.209Z,10.98
2022-10-23T05:25:07.940Z,10.92
2022-10-23T05:27:35.398Z,11.20
2022-10-23T05:30:08.077Z,11.25
2022-10-23T05:32:37.586Z,11.19
2022-10-23T05:35:17.535Z,11.02
2022-10-23T05:37:49.291Z,11.02
2022-10-23T05:40:22.479Z,11.43
2022-10-23T05:42:55.721Z,11.44
2022-10-23T05:45:34.290Z,11.18
2022-10-23T05:48:35.003Z,11.02
2022-10-23T05:51:41.704Z,11.49
2022-10-23T05:54:33.226Z,11.46
2022-10-23T05:57:15.118Z,11.15
2022-10-23T05:59:51.077Z,10.94
2022-10-23T06:02:27.590Z,11.24
2022-10-23T06:05:00.129Z,11.37
2022-10-23T06:07:44.349Z,11.21
2022-10-23T06:10:12.648Z,11.09
2022-10-23T06:12:43.383Z,11.11
2022-10-23T06:15:13.910Z,11.35
2022-10-23T06:18:02.974Z,11.43
2022-10-23T06:20:34.934Z,11.28
2022-10-23T06:23:07.514Z,11.16
2022-10-23T06:25:56.270Z,11.52
2022-10-23T06:28:31.302Z,11.68
2022-10-23T06:30:58.965Z,11.54
2022-10-23T06:33:27.856Z,11.27
2022-10-23T06:35:56.337Z,11.33
2022-10-23T06:38:23.805Z,11.55
2022-10-23T06:40:55.858Z,11.56
2022-10-23T06:43:34.374Z,11.43
2022-10-23T06:46:17.601Z,11.23
2022-10-23T06:48:57.549Z,11.42
2022-10-23T06:51:29.517Z,11.55
2022-10-23T06:53:57.275Z,11.51
2022-10-23T06:56:51.155Z,11.25
2022-10-23T06:59:22.297Z,11.60
2022-10-23T07:04:20.388Z,11.59
2022-10-23T07:06:48.458Z,11.39
2022-10-23T07:09:16.425Z,11.62
2022-10-23T07:11:53.102Z,11.69
2022-10-23T07:14:29.675Z,11.72
2022-10-23T07:16:58.152Z,11.48
2022-10-23T07:19:28.271Z,11.58
2022-10-23T07:21:57.776Z,11.81
2022-10-23T07:24:55.138Z,11.99
2022-10-23T07:27:38.364Z,11.67
2022-10-23T07:30:08.171Z,11.57
2022-10-23T07:32:42.285Z,11.85
2022-10-23T07:35:28.485Z,11.76
2022-10-23T07:38:08.023Z,11.57
2022-10-23T07:40:38.452Z,11.71
2022-10-23T07:43:07.342Z,12.06
2022-10-23T07:45:35.419Z,11.91
2022-10-23T07:48:10.342Z,11.80
2022-10-23T07:51:01.564Z,11.74
2022-10-23T07:53:29.522Z,11.96
2022-10-23T07:56:03.376Z,12.06
2022-10-23T07:58:53.524Z,11.90
2022-10-23T08:01:42.526Z,11.78
2022-10-23T08:04:10.890Z,12.14
2022-10-23T08:06:45.179Z,12.20
2022-10-23T08:09:13.563Z,12.12
2022-10-23T08:11:51.869Z,11.91
2022-10-23T08:14:19.732Z,11.87
2022-10-23T08:16:51.252Z,12.16
2022-10-23T08:19:18.843Z,12.26
2022-10-23T08:21:47.428Z,12.03
2022-10-23T08:24:16.377Z,11.87
2022-10-23T08:26:49.719Z,12.13
2022-10-23T08:29:19.015Z,12.27
2022-10-23T08:31:48.426Z,12.12
2022-10-23T08:34:25.727Z,11.93
2022-10-23T08:36:54.292Z,12.03
2022-10-23T08:39:22.058Z,12.32
2022-10-23T08:42:19.977Z,12.08
2022-10-23T08:45:07.553Z,11.89
2022-10-23T08:47:47.750Z,12.17
2022-10-23T08:50:44.073Z,12.40
2022-10-23T08:53:31.364Z,12.23
2022-10-23T08:56:13.574Z,11.86
2022-10-23T08:58:41.213Z,12.21
2022-10-23T09:01:34.197Z,12.40
2022-10-23T09:04:02.872Z,12.20
2022-10-23T09:06:59.901Z,11.94
2022-10-23T09:09:55.238Z,12.24
2022-10-23T09:12:25.963Z,12.46
2022-10-23T09:15:30.902Z,12.34
2022-10-23T09:18:01.328Z,12.10
2022-10-23T09:20:33.811Z,12.26
2022-10-23T09:23:12.625Z,12.57
2022-10-23T09:25:42.054Z,12.51
2022-10-23T09:28:19.600Z,12.43
2022-10-23T09:30:47.689Z,12.54
2022-10-23T09:33:19.141Z,12.53
2022-10-23T09:35:55.019Z,12.46
2022-10-23T09:38:36.485Z,12.38
2022-10-23T09:41:13.375Z,12.36
2022-10-23T09:43:41.024Z,12.60
2022-10-23T09:46:11.651Z,12.55
2022-10-23T09:48:41.940Z,12.43
2022-10-23T09:51:17.629Z,12.25
2022-10-23T09:53:50.588Z,12.66
2022-10-23T09:56:33.439Z,12.61
2022-10-23T09:59:25.075Z,12.65
2022-10-23T10:01:58.981Z,12.38
2022-10-23T10:04:58.989Z,12.47
2022-10-23T10:07:32.144Z,12.59
2022-10-23T10:10:02.194Z,12.52
2022-10-23T10:12:37.537Z,12.41
2022-10-23T10:15:27.120Z,12.28
2022-10-23T10:18:03.987Z,12.44
2022-10-23T10:20:53.148Z,12.46
2022-10-23T10:23:27.184Z,12.38
2022-10-23T10:26:26.196Z,12.30
2022-10-23T10:29:07.239Z,12.63
2022-10-23T10:31:42.492Z,12.65
2022-10-23T10:34:15.487Z,12.56
2022-10-23T10:36:55.251Z,12.47
2022-10-23T10:39:39.461Z,12.65
2022-10-23T10:42:07.744Z,12.88
2022-10-23T10:44:43.530Z,12.91
2022-10-23T10:47:20.145Z,12.81
2022-10-23T10:50:16.183Z,12.65
2022-10-23T10:53:44.473Z,12.92
2022-10-23T10:56:14.366Z,12.74
2022-10-23T10:58:44.838Z,12.56
2022-10-23T11:01:35.010Z,12.53
2022-10-23T11:04:40.958Z,12.95
2022-10-23T11:07:11.893Z,12.76
2022-10-23T11:09:39.861Z,12.67
2022-10-23T11:12:12.540Z,12.70
2022-10-23T11:14:42.668Z,12.56
2022-10-23T11:17:13.496Z,12.94
2022-10-23T11:19:49.854Z,12.65
2022-10-23T11:22:38.632Z,12.57
2022-10-23T11:25:25.965Z,12.43
2022-10-23T11:28:05.265Z,12.93
2022-10-23T11:31:01.617Z,12.65
2022-10-23T11:33:51.288Z,12.42
2022-10-23T11:36:45.996Z,12.21
2022-10-23T11:39:20.834Z,12.67
2022-10-23T11:41:52.762Z,12.70
2022-10-23T11:44:40.346Z,12.57
2022-10-23T11:47:40.550Z,12.42
2022-10-23T11:50:08.915Z,12.56
2022-10-23T11:52:45.612Z,12.96
2022-10-23T11:55:28.195Z,12.81
2022-10-23T11:58:20.134Z,12.70
2022-10-23T12:01:19.294Z,12.70
2022-10-23T12:03:55.797Z,12.87
2022-10-23T12:06:46.808Z,12.86
2022-10-23T12:09:22.656Z,12.83
2022-10-23T12:12:03.208Z,12.72
2022-10-23T12:14:37.480Z,12.66
2022-10-23T12:17:28.957Z,13.04
2022-10-23T12:20:08.602Z,13.20
2022-10-23T12:22:51.624Z,13.15
2022-10-23T12:25:57.996Z,13.11
2022-10-23T12:28:54.836Z,12.74
2022-10-23T12:32:13.815Z,12.96
2022-10-23T12:42:26.085Z,12.77
2022-10-23T12:45:02.625Z,12.76
2022-10-23T12:47:30.432Z,13.14
2022-10-23T12:49:58.080Z,13.49
2022-10-23T12:52:25.815Z,13.49
2022-10-23T12:54:53.316Z,13.35
2022-10-23T12:57:30.768Z,13.23
2022-10-23T13:00:04.000Z,13.24
2022-10-23T13:02:32.769Z,13.54
2022-10-23T13:05:01.636Z,13.68
2022-10-23T13:07:31.139Z,13.62
2022-10-23T13:10:00.445Z,13.49
2022-10-23T13:12:35.097Z,13.31
2022-10-23T13:15:09.160Z,13.16
2022-10-23T13:17:44.518Z,13.26
2022-10-23T13:20:22.736Z,13.75
2022-10-23T13:22:59.325Z,13.64
2022-10-23T13:25:34.979Z,13.38
2022-10-23T13:28:14.088Z,13.24
2022-10-23T13:30:43.522Z,13.05
2022-10-23T13:33:24.454Z,12.97
2022-10-23T13:35:57.383Z,13.42
2022-10-23T13:38:32.441Z,13.37
2022-10-23T13:41:00.969Z,13.40
2022-10-23T13:43:28.519Z,13.24
2022-10-23T13:45:56.020Z,13.10
2022-10-23T13:48:24.951Z,12.99
2022-10-23T13:50:55.740Z,13.23
2022-10-23T13:53:23.154Z,13.52
2022-10-23T13:55:53.706Z,13.57
2022-10-23T13:58:23.830Z,13.49
2022-10-23T14:00:51.270Z,13.34
2022-10-23T14:03:20.779Z,13.13
2022-10-23T14:05:48.236Z,13.46
2022-10-23T14:08:15.689Z,13.76
2022-10-23T14:10:43.149Z,13.64
2022-10-23T14:13:10.598Z,13.50
2022-10-23T14:15:38.054Z,13.31
2022-10-23T14:18:08.190Z,13.06
2022-10-23T14:20:38.906Z,13.06
2022-10-23T14:23:06.471Z,13.49
2022-10-23T14:25:33.922Z,13.79
2022-10-23T14:28:01.388Z,13.53
2022-10-23T14:30:28.836Z,13.25
2022-10-23T14:32:56.394Z,13.15
2022-10-23T14:35:26.006Z,13.06
2022-10-23T14:37:55.913Z,12.93
2022-10-23T14:40:23.375Z,13.27
2022-10-23T14:42:50.933Z,13.44
2022-10-23T14:45:18.395Z,13.44
2022-10-23T14:47:46.608Z,13.18
2022-10-23T14:50:14.554Z,12.93
2022-10-23T14:52:41.986Z,12.83
2022-10-23T14:55:11.145Z,12.92
2022-10-23T14:57:39.156Z,13.22
2022-10-23T15:00:07.592Z,13.24
2022-10-23T15:02:37.176Z,13.05
2022-10-23T15:05:06.650Z,12.75
2022-10-23T15:07:33.998Z,12.55
2022-10-23T15:10:01.565Z,12.86
2022-10-23T15:12:31.990Z,13.04
2022-10-23T15:14:59.447Z,12.95
2022-10-23T15:17:26.901Z,12.85
2022-10-23T15:20:04.520Z,12.72
2022-10-23T15:22:31.954Z,12.60
2022-10-23T15:24:59.406Z,13.02
2022-10-23T15:27:26.973Z,13.35
2022-10-23T15:29:54.532Z,13.26
2022-10-23T15:32:22.195Z,13.06
2022-10-23T15:34:50.158Z,12.71
2022-10-23T15:37:20.488Z,12.51
2022-10-23T15:39:48.046Z,12.35
2022-10-23T15:42:15.605Z,12.77
2022-10-23T15:44:43.076Z,13.19
2022-10-23T15:47:10.724Z,13.19
2022-10-23T15:49:38.625Z,12.97
2022-10-23T15:52:06.215Z,12.70
2022-10-23T15:54:33.816Z,12.47
2022-10-23T15:57:01.758Z,12.28
2022-10-23T15:59:29.744Z,12.68
2022-10-23T16:01:57.489Z,13.20
2022-10-23T16:04:25.080Z,13.23
2022-10-23T16:06:53.631Z,13.00
2022-10-23T16:09:21.737Z,12.74
2022-10-23T16:11:50.660Z,12.50
2022-10-23T16:14:18.275Z,12.31
2022-10-23T16:16:45.848Z,12.68
2022-10-23T16:19:13.500Z,13.04
2022-10-23T16:21:41.574Z,12.99
2022-10-23T16:24:09.566Z,12.77
2022-10-23T16:26:37.205Z,12.53
2022-10-23T16:29:10.750Z,12.31
2022-10-23T16:31:39.688Z,12.61
2022-10-23T16:34:07.469Z,12.86
2022-10-23T16:36:35.125Z,12.85
2022-10-23T16:39:21.347Z,12.65
2022-10-23T16:42:08.020Z,12.39
2022-10-23T16:45:05.383Z,12.26
2022-10-23T16:47:33.450Z,12.63
2022-10-23T16:50:01.040Z,12.84
2022-10-23T16:52:29.952Z,12.72
2022-10-23T16:54:57.458Z,12.51
2022-10-23T16:57:27.684Z,12.30
2022-10-23T16:59:55.142Z,12.09
2022-10-23T17:02:22.747Z,12.43
2022-10-23T17:04:50.365Z,12.74
2022-10-23T17:07:17.911Z,12.67
2022-10-23T17:09:47.000Z,12.48
2022-10-23T17:12:14.945Z,12.37
2022-10-23T17:14:42.851Z,12.66
2022-10-23T17:17:10.419Z,12.82
2022-10-23T17:19:46.532Z,12.83
2022-10-23T17:22:14.845Z,12.62
2022-10-23T17:24:44.150Z,12.46
2022-10-23T17:27:13.756Z,12.51
2022-10-23T17:29:43.473Z,12.81
2022-10-23T17:32:11.154Z,12.76
2022-10-23T17:34:38.682Z,12.63
2022-10-23T17:37:06.137Z,12.43
2022-10-23T17:39:33.490Z,12.35
2022-10-23T17:42:00.843Z,12.71
2022-10-23T17:44:29.529Z,12.75
2022-10-23T17:46:56.988Z,12.57
2022-10-23T17:49:24.653Z,12.32
2022-10-23T17:51:57.029Z,12.04
2022-10-23T17:54:25.503Z,12.09
2022-10-23T17:56:53.409Z,12.37
2022-10-23T17:59:20.930Z,12.31
2022-10-23T18:01:48.793Z,12.05
2022-10-23T18:04:19.782Z,11.74
2022-10-23T18:06:49.858Z,11.58
2022-10-23T18:09:18.335Z,11.94
2022-10-23T18:11:48.748Z,12.17
2022-10-23T18:14:17.485Z,12.06
2022-10-23T18:16:46.285Z,11.87
2022-10-23T18:19:15.043Z,11.63
2022-10-23T18:21:42.478Z,11.51
2022-10-23T18:24:10.662Z,11.97
2022-10-23T18:26:39.644Z,12.41
2022-10-23T18:29:10.482Z,12.39
2022-10-23T18:31:38.450Z,12.22
2022-10-23T18:34:09.370Z,12.02
2022-10-23T18:36:38.997Z,11.83
2022-10-23T18:39:07.224Z,12.24
2022-10-23T18:41:39.548Z,12.71
2022-10-23T18:44:07.103Z,12.69
2022-10-23T18:46:34.974Z,12.51
2022-10-23T18:49:02.740Z,12.27
2022-10-23T18:51:31.774Z,12.06
2022-10-23T18:54:01.091Z,12.06
2022-10-23T18:56:28.790Z,12.58
2022-10-23T18:58:57.784Z,12.76
2022-10-23T19:01:27.293Z,12.61
2022-10-23T19:06:23.956Z,12.15
2022-10-23T19:08:51.502Z,12.11
2022-10-23T19:11:20.391Z,12.56
2022-10-23T19:13:47.951Z,12.83
2022-10-23T19:16:24.628Z,12.68
2022-10-23T19:19:04.290Z,12.48
2022-10-23T19:21:35.379Z,12.33
2022-10-23T19:24:05.435Z,12.60
2022-10-23T19:26:32.898Z,12.98
2022-10-23T19:31:52.476Z,12.74
2022-10-23T19:34:21.776Z,12.58
2022-10-23T19:36:50.667Z,12.43
2022-10-23T19:39:19.149Z,12.86
2022-10-23T19:41:46.949Z,13.24
2022-10-23T19:44:15.596Z,13.21
2022-10-23T19:46:43.267Z,13.03
2022-10-23T19:49:10.926Z,12.79
2022-10-23T19:51:38.697Z,12.56
2022-10-23T19:54:06.454Z,12.79
2022-10-23T19:56:33.912Z,13.15
2022-10-23T19:59:01.371Z,13.11
2022-10-23T20:01:29.135Z,12.95
2022-10-23T20:03:56.904Z,12.75
2022-10-23T20:06:29.569Z,12.56
2022-10-23T20:08:57.539Z,12.41
2022-10-23T20:11:29.812Z,12.86
2022-10-23T20:13:57.373Z,13.28
2022-10-23T20:16:35.659Z,13.28
2022-10-23T20:19:07.414Z,13.06
2022-10-23T20:21:39.196Z,12.79
2022-10-23T20:24:07.469Z,12.49
2022-10-23T20:26:35.028Z,12.28
2022-10-23T20:29:02.485Z,12.64
2022-10-23T20:31:29.843Z,12.94
2022-10-23T20:33:57.613Z,12.93
2022-10-23T20:36:29.056Z,12.74
2022-10-23T20:38:57.025Z,12.52
2022-10-23T20:41:27.452Z,12.29
2022-10-23T20:43:56.405Z,12.58
2022-10-23T20:46:24.109Z,12.84
2022-10-23T20:48:51.787Z,12.80
2022-10-23T20:51:20.849Z,12.56
2022-10-23T20:53:48.626Z,12.33
2022-10-23T20:56:21.205Z,12.16
2022-10-23T20:58:48.556Z,12.55
2022-10-23T21:01:17.298Z,12.78
2022-10-23T21:03:45.319Z,12.64
2022-10-23T21:06:13.949Z,12.43
2022-10-23T21:08:41.559Z,12.22
2022-10-23T21:11:11.580Z,12.18
2022-10-23T21:13:39.082Z,12.57
2022-10-23T21:16:24.932Z,12.74
2022-10-23T21:18:58.215Z,12.51
2022-10-23T21:21:26.288Z,12.29
2022-10-23T21:23:54.697Z,12.03
2022-10-23T21:26:23.353Z,11.89
2022-10-23T21:28:56.162Z,12.26
2022-10-23T21:31:40.181Z,12.51
2022-10-23T21:34:07.752Z,12.46
2022-10-23T21:36:48.225Z,12.22
2022-10-23T21:39:22.520Z,11.91
2022-10-23T21:41:49.778Z,11.71
2022-10-23T21:44:17.127Z,12.09
2022-10-23T21:46:44.786Z,12.45
2022-10-23T21:49:12.142Z,12.39
2022-10-23T21:51:39.702Z,12.21
2022-10-23T21:54:08.603Z,11.95
2022-10-23T21:56:47.189Z,11.69
2022-10-23T21:59:16.693Z,11.51
2022-10-23T22:01:45.659Z,12.02
2022-10-23T22:04:17.672Z,12.56
2022-10-23T22:06:45.741Z,12.58
2022-10-23T22:09:14.919Z,12.36
2022-10-23T22:11:42.509Z,12.07
2022-10-23T22:14:09.862Z,11.79
2022-10-23T22:16:37.335Z,11.56
2022-10-23T22:19:04.770Z,11.90
2022-10-23T22:21:32.224Z,12.32
2022-10-23T22:24:00.567Z,12.34
2022-10-23T22:26:29.595Z,12.12
2022-10-23T22:28:59.081Z,11.83
2022-10-23T22:31:29.600Z,11.59
2022-10-23T22:33:57.088Z,11.37
2022-10-23T22:36:24.929Z,11.79
2022-10-23T22:38:52.622Z,12.30
2022-10-23T22:41:20.386Z,12.34
2022-10-23T22:43:47.842Z,12.14
2022-10-23T22:46:17.513Z,11.82
2022-10-23T22:48:45.313Z,11.52
2022-10-23T22:51:14.098Z,11.30
2022-10-23T22:53:41.556Z,11.66
2022-10-23T22:56:23.450Z,12.14
2022-10-23T22:58:51.220Z,12.12
2022-10-23T23:01:27.263Z,11.88
2022-10-23T23:03:55.257Z,11.55
2022-10-23T23:06:24.238Z,11.23
2022-10-23T23:08:51.799Z,10.98
2022-10-23T23:11:20.440Z,11.32
2022-10-23T23:13:48.061Z,11.71
2022-10-23T23:16:25.549Z,11.66
2022-10-23T23:18:52.993Z,11.39
2022-10-23T23:21:20.650Z,11.09
2022-10-23T23:23:48.312Z,10.83
2022-10-23T23:26:16.075Z,10.63
2022-10-23T23:28:43.544Z,11.02
2022-10-23T23:31:20.735Z,11.56
2022-10-23T23:33:48.490Z,11.56
2022-10-23T23:36:19.523Z,11.33
2022-10-23T23:38:46.985Z,11.03
2022-10-23T23:41:15.357Z,10.75
2022-10-23T23:43:43.530Z,10.54
2022-10-23T23:46:10.997Z,10.98
2022-10-23T23:48:38.547Z,11.43
2022-10-23T23:51:06.588Z,11.44
2022-10-23T23:53:34.075Z,11.20
2022-10-23T23:56:01.532Z,10.95
2022-10-23T23:58:28.992Z,10.68
